Time;durP1;ratioP1;P1;durP2;ratioP2;P2;SDS_P1;SDS_P2;PMS_P1;PMS_P2;Temp;Humidity;BMP_temperature;BMP_pressure;BME280_temperature;BME280_humidity;BME280_pressure;Samples;Min_cycle;Max_cycle;Signal;HPM_P1;HPM_P2
2022/03/13 00:01:03;;;;;;;22.55;17.23;;;6.30;99.90;;;;;;5052575;28;20045;-71
2022/03/13 00:03:31;;;;;;;19.77;17.25;;;6.30;99.90;;;;;;5030128;28;20056;-70
2022/03/13 00:05:57;;;;;;;22.10;17.52;;;6.30;99.90;;;;;;5054112;28;20028;-70
2022/03/13 00:08:34;;;;;;;22.40;17.42;;;6.30;99.90;;;;;;5026657;28;20043;-71
2022/03/13 00:11:05;;;;;;;25.73;18.48;;;6.30;99.90;;;;;;5054782;28;20136;-72
2022/03/13 00:13:35;;;;;;;27.48;16.73;;;6.30;99.90;;;;;;5036041;28;20032;-72
2022/03/13 00:16:03;;;;;;;23.15;18.20;;;6.30;99.90;;;;;;5050965;28;20037;-70
2022/03/13 00:18:32;;;;;;;20.65;17.10;;;6.40;99.90;;;;;;5057012;28;20043;-70
2022/03/13 00:21:01;;;;;;;21.52;17.63;;;6.40;99.90;;;;;;5067947;28;20493;-72
2022/03/13 00:23:27;;;;;;;21.20;17.55;;;6.40;99.90;;;;;;5051338;28;20129;-72
2022/03/13 00:25:52;;;;;;;21.83;17.60;;;6.40;99.90;;;;;;5068409;28;20127;-71
2022/03/13 00:28:18;;;;;;;22.25;18.27;;;6.40;99.90;;;;;;5052660;28;20044;-71
2022/03/13 00:30:43;;;;;;;21.02;17.38;;;6.40;99.90;;;;;;5048182;28;20041;-70
2022/03/13 00:33:10;;;;;;;21.88;16.95;;;6.40;99.90;;;;;;5053586;28;20108;-70
2022/03/13 00:35:38;;;;;;;23.05;17.70;;;6.50;99.90;;;;;;5043495;28;20096;-71
2022/03/13 00:38:05;;;;;;;21.05;16.98;;;6.50;99.90;;;;;;5053811;28;20039;-71
2022/03/13 00:40:30;;;;;;;22.23;18.08;;;6.50;99.90;;;;;;5055136;28;20025;-70
2022/03/13 00:42:56;;;;;;;22.90;17.17;;;6.50;99.90;;;;;;5050927;28;20037;-72
2022/03/13 00:45:22;;;;;;;21.23;17.77;;;6.50;99.90;;;;;;5034957;28;20127;-70
2022/03/13 00:47:48;;;;;;;21.42;17.75;;;6.50;99.90;;;;;;5054869;28;20378;-72
2022/03/13 00:50:14;;;;;;;21.27;17.65;;;6.50;99.90;;;;;;5051929;28;20050;-71
2022/03/13 00:52:40;;;;;;;21.38;18.02;;;6.50;99.90;;;;;;5050443;28;20127;-72
2022/03/13 00:55:06;;;;;;;21.60;17.65;;;6.50;99.90;;;;;;5068752;28;20127;-71
2022/03/13 00:57:32;;;;;;;24.55;18.17;;;6.50;99.90;;;;;;5051115;28;20048;-71
2022/03/13 00:59:58;;;;;;;20.77;16.95;;;6.50;99.90;;;;;;5051395;28;20037;-71
2022/03/13 01:02:24;;;;;;;21.85;18.13;;;6.60;99.90;;;;;;5053791;28;20507;-71
2022/03/13 01:04:49;;;;;;;20.98;17.40;;;6.60;99.90;;;;;;5049520;28;20082;-71
2022/03/13 01:07:15;;;;;;;18.92;16.13;;;6.60;99.90;;;;;;5042200;28;20492;-72
2022/03/13 01:09:41;;;;;;;27.77;17.50;;;6.60;99.90;;;;;;5068238;28;20221;-71
2022/03/13 01:12:08;;;;;;;23.30;17.25;;;6.60;99.90;;;;;;5054015;28;20036;-71
2022/03/13 01:14:34;;;;;;;24.02;18.27;;;6.60;99.90;;;;;;5071762;28;20032;-72
2022/03/13 01:17:03;;;;;;;25.67;17.05;;;6.60;99.90;;;;;;5054100;28;20051;-71
2022/03/13 01:19:29;;;;;;;23.30;17.75;;;6.60;99.90;;;;;;5049052;28;20033;-72
2022/03/13 01:21:55;;;;;;;21.65;17.73;;;6.60;99.90;;;;;;5052788;28;20032;-71
2022/03/13 01:24:29;;;;;;;24.52;17.67;;;6.60;99.90;;;;;;5055228;28;20040;-70
2022/03/13 01:27:02;;;;;;;22.83;18.05;;;6.50;99.90;;;;;;5049546;28;20044;-71
2022/03/13 01:29:28;;;;;;;21.30;17.52;;;6.60;99.90;;;;;;5041332;28;20053;-71
2022/03/13 01:31:54;;;;;;;21.00;17.88;;;6.60;99.90;;;;;;5023735;28;20045;-71
2022/03/13 01:34:41;;;;;;;21.17;17.35;;;6.50;99.90;;;;;;5051338;28;20045;-71
2022/03/13 01:37:11;;;;;;;20.70;17.73;;;6.60;99.90;;;;;;5052101;28;20100;-70
2022/03/13 01:39:37;;;;;;;20.05;16.92;;;6.70;99.90;;;;;;5035913;28;20036;-71
2022/03/13 01:42:04;;;;;;;22.15;16.23;;;6.70;99.90;;;;;;5047905;28;20044;-71
2022/03/13 01:44:30;;;;;;;21.05;17.45;;;6.80;99.90;;;;;;5052206;28;20123;-71
2022/03/13 01:46:55;;;;;;;20.50;17.92;;;6.90;99.90;;;;;;5058002;28;20052;-71
2022/03/13 01:49:23;;;;;;;20.50;16.55;;;7.00;99.90;;;;;;5052252;28;20166;-71
2022/03/13 01:51:48;;;;;;;18.92;15.43;;;7.20;99.90;;;;;;5049683;28;20068;-71
2022/03/13 01:54:14;;;;;;;20.38;16.25;;;7.30;99.90;;;;;;5069070;28;20137;-71
2022/03/13 01:56:41;;;;;;;20.48;16.88;;;7.40;99.90;;;;;;5068924;28;20085;-72
2022/03/13 01:59:08;;;;;;;21.05;16.05;;;7.50;99.90;;;;;;5068213;28;20040;-71
2022/03/13 02:01:34;;;;;;;18.17;15.25;;;7.60;99.90;;;;;;5050967;28;20042;-70
2022/03/13 02:04:00;;;;;;;19.27;15.55;;;7.60;99.90;;;;;;5053676;28;20131;-71
2022/03/13 02:06:26;;;;;;;17.70;15.32;;;7.70;99.90;;;;;;5055512;28;20123;-71
2022/03/13 02:08:54;;;;;;;19.67;16.13;;;7.70;99.90;;;;;;5048246;28;20076;-71
2022/03/13 02:11:24;;;;;;;18.50;15.52;;;7.70;99.90;;;;;;5052548;28;20037;-72
2022/03/13 02:13:53;;;;;;;20.15;15.70;;;7.80;99.90;;;;;;5053310;28;20036;-70
2022/03/13 02:16:20;;;;;;;19.73;15.57;;;7.80;99.90;;;;;;5035385;28;20409;-72
2022/03/13 02:18:53;;;;;;;19.10;15.25;;;7.90;99.90;;;;;;5050602;28;20038;-71
2022/03/13 02:21:24;;;;;;;20.35;15.65;;;7.90;99.90;;;;;;5071173;28;20086;-71
2022/03/13 02:23:49;;;;;;;19.73;16.27;;;7.90;99.90;;;;;;5050344;28;20078;-72
2022/03/13 02:26:15;;;;;;;21.33;16.25;;;8.00;99.90;;;;;;5052543;28;21005;-71
2022/03/13 02:28:51;;;;;;;23.10;15.35;;;8.00;99.90;;;;;;5047601;28;21121;-69
2022/03/13 02:31:24;;;;;;;21.67;14.43;;;8.00;99.90;;;;;;5045986;28;20132;-71
2022/03/13 02:33:51;;;;;;;;;;;8.00;99.90;;;;;;5050937;28;20048;-71
2022/03/13 02:36:32;;;;;;;17.90;14.57;;;8.10;99.90;;;;;;5049772;28;19970;-71
2022/03/13 02:38:59;;;;;;;18.10;14.93;;;8.00;99.90;;;;;;5069819;28;20119;-71
2022/03/13 02:41:27;;;;;;;18.38;15.40;;;8.00;99.90;;;;;;5069681;28;20041;-71
2022/03/13 02:43:57;;;;;;;19.63;15.07;;;8.00;99.90;;;;;;5050512;28;20036;-70
2022/03/13 02:46:25;;;;;;;17.63;14.93;;;8.00;99.90;;;;;;5023966;28;20452;-72
2022/03/13 02:48:51;;;;;;;21.65;15.50;;;8.00;99.90;;;;;;5047719;28;20040;-70
2022/03/13 02:51:17;;;;;;;18.58;15.38;;;8.00;99.90;;;;;;5051820;28;20052;-70
2022/03/13 02:53:44;;;;;;;17.38;15.10;;;8.00;99.90;;;;;;5020098;28;20043;-71
2022/03/13 02:56:10;;;;;;;18.90;16.05;;;7.90;99.90;;;;;;5051133;28;20182;-71
2022/03/13 02:58:36;;;;;;;17.67;15.45;;;7.90;99.90;;;;;;5046368;28;20193;-72
2022/03/13 03:01:02;;;;;;;22.90;15.25;;;7.90;99.90;;;;;;5050678;28;20040;-72
2022/03/13 03:03:27;;;;;;;18.60;14.90;;;7.90;99.90;;;;;;5071963;28;20043;-70
2022/03/13 03:05:53;;;;;;;21.23;15.45;;;7.80;99.90;;;;;;5038159;28;20112;-71
2022/03/13 03:08:21;;;;;;;17.83;15.45;;;7.80;99.90;;;;;;5019817;28;20069;-70
2022/03/13 03:10:47;;;;;;;20.00;15.05;;;7.70;99.90;;;;;;5020622;28;20082;-75
2022/03/13 03:13:15;;;;;;;19.63;16.00;;;7.60;99.90;;;;;;5050801;28;20044;-71
2022/03/13 03:15:41;;;;;;;19.83;15.77;;;7.60;99.90;;;;;;5054711;28;20051;-69
2022/03/13 03:18:11;;;;;;;17.90;14.90;;;7.40;99.90;;;;;;5050254;28;20036;-71
2022/03/13 03:20:38;;;;;;;19.38;15.52;;;7.40;99.90;;;;;;5050503;28;20045;-71
2022/03/13 03:23:05;;;;;;;17.42;15.55;;;7.30;99.90;;;;;;5067392;28;20051;-71
2022/03/13 03:25:31;;;;;;;20.70;16.23;;;7.20;99.90;;;;;;5051594;28;20036;-72
2022/03/13 03:27:58;;;;;;;20.17;15.98;;;7.10;99.90;;;;;;5051867;28;20082;-74
2022/03/13 03:30:26;;;;;;;19.00;16.65;;;7.00;99.90;;;;;;5051725;28;20041;-71
2022/03/13 03:32:53;;;;;;;18.67;16.25;;;6.90;99.90;;;;;;5059161;28;20036;-71
2022/03/13 03:35:22;;;;;;;23.40;18.60;;;6.80;99.90;;;;;;5041477;28;21697;-70
2022/03/13 03:37:49;;;;;;;20.95;17.80;;;6.70;99.90;;;;;;5054110;28;20038;-71
2022/03/13 03:40:15;;;;;;;24.60;18.02;;;6.60;99.90;;;;;;5051849;28;20041;-72
2022/03/13 03:42:43;;;;;;;21.25;16.90;;;6.50;99.90;;;;;;5068376;28;20030;-72
2022/03/13 03:45:10;;;;;;;22.30;17.50;;;6.40;99.90;;;;;;5073485;28;20087;-72
2022/03/13 03:47:35;;;;;;;25.60;19.15;;;6.40;99.90;;;;;;5054962;28;20037;-71
2022/03/13 03:50:04;;;;;;;21.77;18.70;;;6.30;99.90;;;;;;5056976;28;20040;-70
2022/03/13 03:52:29;;;;;;;21.00;17.65;;;6.20;99.90;;;;;;5042336;28;20051;-75
2022/03/13 03:54:55;;;;;;;23.85;18.33;;;6.10;99.90;;;;;;5030475;28;20041;-72
2022/03/13 03:57:21;;;;;;;22.50;18.50;;;6.00;99.90;;;;;;5043728;28;20069;-70
2022/03/13 03:59:46;;;;;;;20.83;17.88;;;6.00;99.90;;;;;;5043278;28;20036;-71
2022/03/13 04:02:12;;;;;;;23.75;17.30;;;5.90;99.90;;;;;;5061767;28;20067;-73
2022/03/13 04:04:39;;;;;;;22.60;17.60;;;5.80;99.90;;;;;;5039192;28;20059;-71
2022/03/13 04:07:05;;;;;;;24.20;19.33;;;5.80;99.90;;;;;;5054138;28;20047;-71
2022/03/13 04:09:33;;;;;;;22.27;17.50;;;5.70;99.90;;;;;;5051921;28;20177;-72
2022/03/13 04:11:59;;;;;;;24.38;18.15;;;5.70;99.90;;;;;;5049621;28;20040;-72
2022/03/13 04:14:25;;;;;;;27.73;18.65;;;5.60;99.90;;;;;;5050641;28;20147;-72
2022/03/13 04:16:53;;;;;;;23.35;18.52;;;5.60;99.90;;;;;;5053775;28;20514;-71
2022/03/13 04:19:19;;;;;;;22.50;19.23;;;5.50;99.90;;;;;;5036221;28;20071;-70
2022/03/13 04:21:46;;;;;;;22.48;18.27;;;5.50;99.90;;;;;;5050252;28;20502;-72
2022/03/13 04:24:12;;;;;;;23.65;18.20;;;5.40;99.90;;;;;;5049151;28;20041;-71
2022/03/13 04:26:41;;;;;;;22.52;18.80;;;5.40;99.90;;;;;;5051471;28;20036;-72
2022/03/13 04:29:09;;;;;;;25.75;19.98;;;5.40;99.90;;;;;;5051424;28;20518;-72
2022/03/13 04:31:36;;;;;;;24.95;19.20;;;5.40;99.90;;;;;;5053598;28;20120;-71
2022/03/13 04:34:02;;;;;;;22.30;18.75;;;5.40;99.90;;;;;;5050563;28;20039;-70
2022/03/13 04:36:32;;;;;;;25.60;18.38;;;5.40;99.90;;;;;;5056671;28;20037;-70
2022/03/13 04:38:58;;;;;;;22.95;19.20;;;5.40;99.90;;;;;;5053022;28;20059;-75
2022/03/13 04:41:23;;;;;;;22.52;18.70;;;5.40;99.90;;;;;;5053911;28;20113;-71
2022/03/13 04:43:49;;;;;;;25.13;19.48;;;5.40;99.90;;;;;;5052922;28;20036;-72
2022/03/13 04:46:15;;;;;;;23.60;19.50;;;5.40;99.90;;;;;;5069516;28;20036;-71
2022/03/13 04:48:41;;;;;;;25.17;18.98;;;5.40;99.90;;;;;;5055329;28;20048;-70
2022/03/13 04:51:06;;;;;;;21.10;18.23;;;5.40;99.90;;;;;;5049951;28;20044;-71
2022/03/13 04:53:32;;;;;;;26.95;20.20;;;5.30;99.90;;;;;;5051113;28;20064;-71
2022/03/13 04:55:58;;;;;;;22.48;18.75;;;5.30;99.90;;;;;;5051339;28;20040;-71
2022/03/13 04:58:24;;;;;;;22.90;19.35;;;5.30;99.90;;;;;;5053078;28;20044;-70
2022/03/13 05:00:51;;;;;;;26.17;19.20;;;5.30;99.90;;;;;;5051688;28;21198;-71
2022/03/13 05:03:16;;;;;;;25.63;18.58;;;5.30;99.90;;;;;;5070952;28;20037;-72
2022/03/13 05:05:42;;;;;;;24.45;18.67;;;5.30;99.90;;;;;;5049501;28;20044;-71
2022/03/13 05:08:15;;;;;;;25.40;19.33;;;5.30;99.90;;;;;;5071969;28;20518;-71
2022/03/13 05:10:42;;;;;;;26.80;20.20;;;5.20;99.90;;;;;;5051034;28;20040;-71
2022/03/13 05:13:11;;;;;;;24.83;18.67;;;5.20;99.90;;;;;;5055943;28;20040;-71
2022/03/13 05:15:37;;;;;;;23.02;17.98;;;5.20;99.90;;;;;;5069704;28;20032;-72
2022/03/13 05:18:04;;;;;;;23.20;18.60;;;5.20;99.90;;;;;;5050752;28;20040;-73
2022/03/13 05:20:31;;;;;;;21.98;17.98;;;5.10;99.90;;;;;;5053404;28;20123;-72
2022/03/13 05:22:57;;;;;;;22.10;18.17;;;5.10;99.90;;;;;;5050508;28;20093;-72
2022/03/13 05:25:24;;;;;;;25.83;19.35;;;5.10;99.90;;;;;;5057423;28;20032;-71
2022/03/13 05:27:52;;;;;;;22.58;18.13;;;5.00;99.90;;;;;;5055185;28;20048;-71
2022/03/13 05:30:20;;;;;;;22.20;18.98;;;5.00;99.90;;;;;;5048841;28;20071;-71
2022/03/13 05:32:46;;;;;;;21.90;17.92;;;5.00;99.90;;;;;;5047779;28;20202;-71
2022/03/13 05:35:12;;;;;;;22.55;18.23;;;4.90;99.90;;;;;;5049086;28;20080;-69
2022/03/13 05:37:39;;;;;;;22.05;18.13;;;4.90;99.90;;;;;;5049092;28;20087;-71
2022/03/13 05:40:05;;;;;;;23.52;18.83;;;4.90;99.90;;;;;;5052905;28;20032;-71
2022/03/13 05:42:31;;;;;;;23.05;18.45;;;4.90;99.90;;;;;;5038680;28;20058;-71
2022/03/13 05:44:57;;;;;;;23.60;18.77;;;4.90;99.90;;;;;;5038571;28;20037;-71
2022/03/13 05:47:23;;;;;;;24.88;18.23;;;4.90;99.90;;;;;;5040021;28;20036;-70
2022/03/13 05:49:49;;;;;;;26.27;18.77;;;4.90;99.90;;;;;;5031686;28;20079;-71
2022/03/13 05:52:15;;;;;;;23.70;18.75;;;4.90;99.90;;;;;;5053305;28;20080;-70
2022/03/13 05:54:42;;;;;;;23.60;18.92;;;4.90;99.90;;;;;;5050596;28;20052;-73
2022/03/13 05:57:10;;;;;;;23.33;19.35;;;4.80;99.90;;;;;;5019305;28;20535;-71
2022/03/13 05:59:39;;;;;;;23.38;18.73;;;4.80;99.90;;;;;;5048823;28;20039;-71
2022/03/13 06:02:05;;;;;;;21.92;18.10;;;4.80;99.90;;;;;;5053286;28;20044;-74
2022/03/13 06:04:32;;;;;;;25.48;19.35;;;4.80;99.90;;;;;;5051016;28;20028;-71
2022/03/13 06:06:59;;;;;;;23.85;18.80;;;4.80;99.90;;;;;;5055502;28;20039;-71
2022/03/13 06:09:25;;;;;;;21.77;18.63;;;4.70;99.90;;;;;;5049508;28;20143;-72
2022/03/13 06:11:50;;;;;;;22.85;18.55;;;4.70;99.90;;;;;;5051101;28;20131;-71
2022/03/13 06:14:18;;;;;;;24.42;19.42;;;4.70;99.90;;;;;;5071472;28;20069;-72
2022/03/13 06:16:44;;;;;;;24.13;18.17;;;4.70;99.90;;;;;;5051043;28;20082;-72
2022/03/13 06:19:10;;;;;;;23.80;18.98;;;4.70;99.90;;;;;;5052671;28;20044;-71
2022/03/13 06:21:36;;;;;;;24.05;17.67;;;4.70;99.90;;;;;;5049671;28;20048;-71
2022/03/13 06:24:01;;;;;;;23.10;18.13;;;4.70;99.90;;;;;;5058758;28;20045;-71
2022/03/13 06:26:27;;;;;;;28.35;16.95;;;4.70;99.90;;;;;;5053985;28;20059;-71
2022/03/13 06:28:52;;;;;;;20.92;17.48;;;4.70;99.90;;;;;;5052683;28;20089;-71
2022/03/13 06:31:18;;;;;;;24.55;18.30;;;4.80;99.90;;;;;;5062013;28;20037;-71
2022/03/13 06:33:44;;;;;;;24.38;18.48;;;4.80;99.90;;;;;;5041924;28;20033;-72
2022/03/13 06:36:12;;;;;;;23.23;18.23;;;4.80;99.90;;;;;;5051401;28;20158;-71
2022/03/13 06:38:37;;;;;;;25.13;17.63;;;4.80;99.90;;;;;;5053242;28;20040;-71
2022/03/13 06:41:03;;;;;;;20.98;17.20;;;4.90;99.90;;;;;;5053421;28;20040;-71
2022/03/13 06:43:29;;;;;;;20.67;17.52;;;4.90;99.90;;;;;;5052161;28;20115;-71
2022/03/13 06:45:55;;;;;;;22.60;17.48;;;5.00;99.90;;;;;;5053048;28;20127;-70
2022/03/13 06:48:21;;;;;;;22.35;16.25;;;5.10;99.90;;;;;;5055431;28;20492;-70
2022/03/13 06:50:48;;;;;;;20.33;16.50;;;5.10;99.90;;;;;;5070485;28;20042;-71
2022/03/13 06:53:14;;;;;;;19.10;16.02;;;5.20;99.90;;;;;;5069325;28;20076;-71
2022/03/13 06:55:40;;;;;;;20.35;15.73;;;5.30;99.90;;;;;;5053090;28;20157;-71
2022/03/13 06:58:06;;;;;;;19.02;16.33;;;5.40;99.90;;;;;;5046774;28;20032;-71
2022/03/13 07:00:33;;;;;;;22.30;16.08;;;5.50;99.90;;;;;;5052830;28;20114;-71
2022/03/13 07:02:59;;;;;;;19.75;16.33;;;5.60;99.90;;;;;;5066518;28;20043;-71
2022/03/13 07:05:25;;;;;;;19.20;16.25;;;5.70;99.90;;;;;;5052278;28;20110;-71
2022/03/13 07:07:54;;;;;;;23.65;16.63;;;5.80;99.90;;;;;;5056200;28;20070;-72
2022/03/13 07:10:20;;;;;;;19.90;15.82;;;5.90;99.90;;;;;;5056861;28;20041;-72
2022/03/13 07:12:48;;;;;;;21.08;16.70;;;6.00;99.90;;;;;;5033687;28;20040;-72
2022/03/13 07:15:14;;;;;;;17.95;15.20;;;6.10;99.90;;;;;;5058622;28;20052;-71
2022/03/13 07:17:44;;;;;;;20.10;16.65;;;6.20;99.90;;;;;;5058319;28;20404;-71
2022/03/13 07:20:10;;;;;;;17.98;14.60;;;6.30;99.90;;;;;;5069667;28;20119;-71
2022/03/13 07:22:36;;;;;;;19.50;15.30;;;6.50;99.90;;;;;;5053439;28;20442;-71
2022/03/13 07:25:02;;;;;;;17.77;14.45;;;6.50;99.90;;;;;;5056361;28;20040;-72
2022/03/13 07:27:28;;;;;;;19.58;15.35;;;6.60;99.90;;;;;;5036675;28;20040;-70
2022/03/13 07:29:53;;;;;;;17.05;14.60;;;6.70;99.90;;;;;;5056483;28;20106;-72
2022/03/13 07:32:20;;;;;;;19.30;14.13;;;6.80;99.90;;;;;;5049610;28;20037;-72
2022/03/13 07:34:46;;;;;;;17.27;14.63;;;6.90;99.90;;;;;;5056098;28;20094;-71
2022/03/13 07:37:11;;;;;;;20.33;14.52;;;7.00;99.90;;;;;;5056320;28;20044;-71
2022/03/13 07:39:39;;;;;;;20.58;14.40;;;7.10;99.90;;;;;;5053281;28;20045;-73
2022/03/13 07:42:05;;;;;;;17.63;13.55;;;7.20;99.90;;;;;;5055684;28;20036;-71
2022/03/13 07:44:31;;;;;;;21.58;14.05;;;7.30;99.90;;;;;;5052000;28;20065;-71
2022/03/13 07:46:57;;;;;;;15.85;13.00;;;7.40;99.90;;;;;;5039457;28;20131;-71
2022/03/13 07:49:23;;;;;;;17.75;13.57;;;7.50;99.90;;;;;;5043215;28;20095;-71
2022/03/13 07:51:49;;;;;;;16.88;12.40;;;7.60;99.90;;;;;;5038948;28;20037;-72
2022/03/13 07:54:15;;;;;;;16.75;13.38;;;7.70;99.90;;;;;;5054348;28;20044;-71
2022/03/13 07:56:41;;;;;;;18.40;13.25;;;7.70;99.90;;;;;;5053660;28;20123;-71
2022/03/13 07:59:07;;;;;;;14.88;12.85;;;7.80;99.90;;;;;;5046317;28;20036;-71
2022/03/13 08:01:33;;;;;;;16.95;12.90;;;7.90;99.90;;;;;;5080028;28;20401;-72
2022/03/13 08:04:01;;;;;;;18.15;13.27;;;7.90;99.90;;;;;;5055535;28;20446;-71
2022/03/13 08:06:27;;;;;;;16.75;13.50;;;8.00;99.90;;;;;;5051664;28;20040;-71
2022/03/13 08:08:54;;;;;;;14.68;12.80;;;8.20;99.90;;;;;;5055800;28;20107;-71
2022/03/13 08:11:19;;;;;;;15.23;12.40;;;8.30;99.90;;;;;;5052026;28;20029;-71
2022/03/13 08:13:45;;;;;;;16.33;12.52;;;8.40;99.90;;;;;;5069935;28;20404;-72
2022/03/13 08:16:11;;;;;;;15.43;12.63;;;8.50;99.90;;;;;;5051689;28;20519;-72
2022/03/13 08:18:36;;;;;;;16.55;12.88;;;8.60;99.90;;;;;;5070094;28;20582;-71
2022/03/13 08:21:02;;;;;;;20.58;12.60;;;8.70;97.80;;;;;;5055083;28;20040;-72
2022/03/13 08:23:28;;;;;;;15.38;11.73;;;8.70;97.10;;;;;;5050255;28;20523;-72
2022/03/13 08:25:54;;;;;;;16.73;12.77;;;8.70;97.30;;;;;;5055460;28;20105;-71
2022/03/13 08:28:19;;;;;;;14.93;11.98;;;8.70;96.00;;;;;;5054419;28;20497;-71
2022/03/13 08:30:45;;;;;;;14.68;12.25;;;8.80;94.00;;;;;;5053281;28;20549;-72
2022/03/13 08:33:11;;;;;;;17.50;12.32;;;8.90;93.60;;;;;;5053929;28;20119;-71
2022/03/13 08:35:36;;;;;;;15.48;12.10;;;8.90;94.60;;;;;;5048557;28;20511;-71
2022/03/13 08:38:02;;;;;;;15.30;12.13;;;9.00;92.90;;;;;;5055295;28;20045;-71
2022/03/13 08:40:29;;;;;;;17.00;12.45;;;9.00;92.30;;;;;;5067536;28;20032;-72
2022/03/13 08:42:56;;;;;;;17.42;12.73;;;9.10;91.90;;;;;;5045166;28;20032;-72
2022/03/13 08:45:22;;;;;;;16.63;12.48;;;9.20;90.60;;;;;;5054782;28;20111;-71
2022/03/13 08:47:48;;;;;;;19.00;12.43;;;9.20;90.70;;;;;;5069692;28;20036;-72
2022/03/13 08:50:15;;;;;;;14.40;11.65;;;9.30;90.20;;;;;;5051111;28;20377;-72
2022/03/13 08:52:41;;;;;;;14.35;11.60;;;9.40;90.00;;;;;;5054111;28;20470;-72
2022/03/13 08:55:08;;;;;;;15.75;11.98;;;9.50;88.20;;;;;;5068274;28;20120;-72
2022/03/13 08:57:35;;;;;;;16.05;12.63;;;9.60;87.70;;;;;;5057442;28;20041;-71
2022/03/13 09:00:01;;;;;;;15.43;12.23;;;9.70;86.90;;;;;;5055023;28;20028;-72
2022/03/13 09:02:28;;;;;;;18.60;13.15;;;9.70;85.80;;;;;;5072080;28;20040;-71
2022/03/13 09:04:53;;;;;;;13.77;11.77;;;9.80;85.50;;;;;;5053835;28;20033;-72
2022/03/13 09:07:19;;;;;;;15.73;11.90;;;9.90;82.60;;;;;;5054148;28;20400;-72
2022/03/13 09:09:45;;;;;;;14.48;11.77;;;10.00;78.60;;;;;;5072364;28;20029;-72
2022/03/13 09:12:11;;;;;;;13.55;11.32;;;10.00;78.60;;;;;;5052815;28;20055;-72
2022/03/13 09:14:39;;;;;;;15.52;11.75;;;10.10;77.40;;;;;;5052889;28;20421;-72
2022/03/13 09:17:05;;;;;;;16.52;12.00;;;10.30;76.00;;;;;;5053257;28;20410;-72
2022/03/13 09:19:30;;;;;;;14.23;11.50;;;10.30;73.40;;;;;;5054301;28;20468;-72
2022/03/13 09:21:56;;;;;;;15.10;12.27;;;10.40;73.90;;;;;;5051738;28;20072;-72
2022/03/13 09:24:22;;;;;;;15.23;12.77;;;10.50;76.50;;;;;;5071596;28;20485;-72
2022/03/13 09:26:47;;;;;;;14.70;12.30;;;10.60;76.20;;;;;;5053504;28;20032;-71
2022/03/13 09:29:14;;;;;;;16.52;12.43;;;10.80;72.40;;;;;;5058275;28;20093;-71
2022/03/13 09:31:39;;;;;;;18.95;12.52;;;10.90;70.50;;;;;;5053060;28;20512;-72
2022/03/13 09:34:05;;;;;;;14.52;11.93;;;10.90;70.60;;;;;;5053803;28;20040;-72
2022/03/13 09:36:36;;;;;;;15.57;11.50;;;11.10;72.30;;;;;;5054235;28;20028;-72
2022/03/13 09:39:07;;;;;;;13.55;12.05;;;11.20;70.90;;;;;;5053774;28;20191;-72
2022/03/13 09:41:33;;;;;;;15.02;11.52;;;11.30;70.20;;;;;;5053321;28;20037;-72
2022/03/13 09:43:58;;;;;;;16.10;11.98;;;11.50;68.80;;;;;;5051998;28;20040;-72
2022/03/13 09:46:24;;;;;;;17.85;12.40;;;11.60;68.70;;;;;;5053301;28;20043;-72
2022/03/13 09:48:53;;;;;;;16.92;11.82;;;11.70;67.70;;;;;;5068601;28;20037;-72
2022/03/13 09:51:18;;;;;;;13.57;11.35;;;11.80;66.60;;;;;;5051502;28;20037;-71
2022/03/13 09:53:44;;;;;;;16.60;11.75;;;11.90;64.90;;;;;;5068740;28;20028;-72
2022/03/13 09:56:10;;;;;;;15.88;12.35;;;12.00;65.80;;;;;;5046391;28;20034;-72
2022/03/13 09:58:35;;;;;;;13.95;11.35;;;12.10;65.40;;;;;;5050537;28;20048;-71
2022/03/13 10:01:02;;;;;;;13.68;11.95;;;12.20;66.30;;;;;;5052899;28;20047;-72
2022/03/13 10:03:27;;;;;;;17.13;12.02;;;12.30;67.40;;;;;;5053193;28;20040;-71
2022/03/13 10:05:55;;;;;;;16.85;12.18;;;12.40;64.80;;;;;;5064764;28;20115;-72
2022/03/13 10:08:29;;;;;;;15.88;12.38;;;12.50;65.20;;;;;;5068482;28;20048;-71
2022/03/13 10:10:56;;;;;;;16.50;11.77;;;12.60;62.70;;;;;;5050692;28;20542;-72
2022/03/13 10:13:33;;;;;;;18.48;12.23;;;12.60;64.10;;;;;;5069312;28;20036;-71
2022/03/13 10:15:59;;;;;;;16.67;12.07;;;12.70;64.10;;;;;;5068473;28;20154;-72
2022/03/13 10:18:28;;;;;;;14.43;12.50;;;12.70;63.40;;;;;;5051787;28;20076;-72
2022/03/13 10:20:53;;;;;;;14.80;12.18;;;12.80;63.30;;;;;;5050995;28;20037;-71
2022/03/13 10:23:21;;;;;;;15.27;12.32;;;12.80;62.40;;;;;;5071367;28;20032;-72
2022/03/13 10:25:49;;;;;;;16.40;11.73;;;12.90;63.10;;;;;;5070748;28;20043;-71
2022/03/13 10:28:24;;;;;;;20.17;11.93;;;13.00;61.60;;;;;;5051610;28;20076;-72
2022/03/13 10:30:59;;;;;;;17.38;12.40;;;13.20;61.80;;;;;;5050430;28;20036;-71
2022/03/13 10:33:48;;;;;;;17.75;12.00;;;13.30;61.90;;;;;;5065408;28;20049;-71
2022/03/13 10:36:16;;;;;;;15.20;12.05;;;13.50;60.60;;;;;;5065341;28;20064;-72
2022/03/13 10:38:44;;;;;;;14.40;11.93;;;13.60;61.40;;;;;;5052241;28;20090;-72
2022/03/13 10:41:11;;;;;;;15.50;11.80;;;13.80;62.50;;;;;;5051614;28;20033;-72
2022/03/13 10:43:54;;;;;;;16.17;12.63;;;14.00;60.90;;;;;;5052439;28;20040;-72
2022/03/13 10:46:30;;;;;;;15.40;11.75;;;14.20;60.10;;;;;;5051399;28;20032;-72
2022/03/13 10:48:58;;;;;;;16.77;12.73;;;14.40;59.60;;;;;;5053184;28;20044;-72
2022/03/13 10:51:45;;;;;;;14.57;11.98;;;14.60;58.30;;;;;;5052195;28;20056;-72
2022/03/13 10:54:30;;;;;;;16.25;12.43;;;14.70;58.20;;;;;;5051348;28;20045;-72
2022/03/13 10:57:09;;;;;;;15.50;13.00;;;14.90;55.80;;;;;;5046886;28;20040;-72
2022/03/13 10:59:37;;;;;;;15.20;12.98;;;15.10;56.30;;;;;;5052943;28;20119;-72
2022/03/13 11:02:16;;;;;;;16.58;12.52;;;15.20;56.60;;;;;;5049228;28;20048;-72
2022/03/13 11:04:50;;;;;;;15.98;12.75;;;15.40;56.40;;;;;;5046980;28;20041;-72
2022/03/13 11:07:16;;;;;;;15.40;12.63;;;15.70;54.70;;;;;;5075635;28;20044;-72
2022/03/13 11:09:42;;;;;;;14.00;12.38;;;15.80;53.60;;;;;;5036355;28;20040;-72
2022/03/13 11:12:15;;;;;;;15.15;12.77;;;16.00;52.40;;;;;;5052951;28;20478;-72
2022/03/13 11:14:43;;;;;;;14.73;12.75;;;16.10;53.00;;;;;;5065242;28;20044;-72
2022/03/13 11:17:11;;;;;;;14.73;12.63;;;16.40;53.00;;;;;;5070331;28;20412;-72
2022/03/13 11:19:38;;;;;;;15.45;12.25;;;16.60;53.20;;;;;;5050373;28;20036;-72
2022/03/13 11:22:04;;;;;;;16.70;12.75;;;16.70;50.00;;;;;;5050514;28;20032;-72
2022/03/13 11:24:30;;;;;;;13.60;11.95;;;16.80;51.40;;;;;;5050938;28;20032;-72
2022/03/13 11:26:56;;;;;;;15.32;13.02;;;17.00;49.20;;;;;;5068884;28;20044;-72
2022/03/13 11:29:45;;;;;;;15.02;12.70;;;17.10;50.20;;;;;;5053023;28;20134;-72
2022/03/13 11:32:30;;;;;;;14.23;12.15;;;17.30;48.70;;;;;;5046613;28;20045;-72
2022/03/13 11:35:14;;;;;;;15.68;13.52;;;17.40;48.30;;;;;;5047207;28;20037;-72
2022/03/13 11:37:43;;;;;;;17.08;12.93;;;17.60;47.80;;;;;;5042502;28;20409;-72
2022/03/13 11:40:11;;;;;;;15.40;12.60;;;17.60;49.00;;;;;;5069160;28;20040;-72
2022/03/13 11:42:51;;;;;;;18.42;13.13;;;17.70;49.50;;;;;;5047574;28;20070;-72
2022/03/13 11:45:28;;;;;;;15.10;13.32;;;17.90;48.30;;;;;;5052332;28;20119;-72
2022/03/13 11:47:54;;;;;;;16.65;12.82;;;18.10;46.80;;;;;;5053450;28;20086;-72
2022/03/13 11:50:20;;;;;;;15.13;12.70;;;18.20;46.00;;;;;;5053325;28;20079;-72
2022/03/13 11:52:46;;;;;;;14.82;12.88;;;18.40;47.60;;;;;;5054088;28;20040;-72
2022/03/13 11:55:13;;;;;;;14.82;12.60;;;18.50;47.40;;;;;;5038679;28;20086;-73
2022/03/13 11:57:50;;;;;;;17.75;12.43;;;18.60;47.00;;;;;;5054855;28;20033;-72
2022/03/13 12:00:16;;;;;;;15.05;12.55;;;18.60;46.10;;;;;;5055948;28;20120;-72
2022/03/13 12:02:42;;;;;;;16.63;13.05;;;18.70;46.10;;;;;;5039164;28;20051;-72
2022/03/13 12:05:25;;;;;;;15.07;12.82;;;18.70;45.40;;;;;;5051054;28;20037;-72
2022/03/13 12:07:56;;;;;;;17.23;13.07;;;18.70;45.80;;;;;;5053827;28;20041;-72
2022/03/13 12:10:42;;;;;;;14.60;12.93;;;18.70;47.40;;;;;;5055296;28;20049;-72
2022/03/13 12:13:12;;;;;;;13.63;12.15;;;18.80;46.10;;;;;;5051714;28;20040;-71
2022/03/13 12:15:40;;;;;;;14.52;12.40;;;18.90;46.20;;;;;;5059272;28;20492;-71
2022/03/13 12:18:23;;;;;;;14.80;13.20;;;18.90;45.70;;;;;;5055562;28;20068;-71
2022/03/13 12:20:50;;;;;;;14.93;12.77;;;19.00;46.10;;;;;;5052082;28;20043;-71
2022/03/13 12:23:33;;;;;;;15.05;11.98;;;19.10;46.70;;;;;;5051433;28;20043;-71
2022/03/13 12:26:15;;;;;;;14.52;12.52;;;19.30;45.90;;;;;;5068783;28;20366;-71
2022/03/13 12:28:41;;;;;;;13.23;11.77;;;19.40;45.90;;;;;;5050269;28;20048;-71
2022/03/13 12:31:07;;;;;;;13.65;12.23;;;19.50;45.70;;;;;;5069147;28;20565;-72
2022/03/13 12:33:37;;;;;;;13.38;11.98;;;19.60;45.60;;;;;;5069931;28;20040;-71
2022/03/13 12:36:03;;;;;;;14.38;12.35;;;19.50;46.00;;;;;;5069798;28;20120;-71
2022/03/13 12:38:31;;;;;;;15.73;12.30;;;19.60;44.70;;;;;;5059804;28;20124;-71